createdAt,value
2023-03-04T00:02:02.896Z,98444.56
2023-03-04T00:04:29.340Z,98447.72
2023-03-04T00:06:55.805Z,98441.31
2023-03-04T00:09:22.305Z,98450.41
2023-03-04T00:11:48.739Z,98447.72
2023-03-04T00:14:15.189Z,98439.72
2023-03-04T00:16:43.165Z,98439.44
2023-03-04T00:19:10.451Z,98436.81
2023-03-04T00:21:36.932Z,98440.78
2023-03-04T00:24:03.500Z,98440.72
2023-03-04T00:26:30.435Z,98459.94
2023-03-04T00:28:57.325Z,98454.31
2023-03-04T00:31:23.800Z,98460.50
2023-03-04T00:33:51.598Z,98466.34
2023-03-04T00:36:18.148Z,98463.66
2023-03-04T00:38:44.748Z,98467.63
2023-03-04T00:41:11.221Z,98463.38
2023-03-04T00:43:37.681Z,98465.75
2023-03-04T00:46:04.247Z,98459.94
2023-03-04T00:48:30.748Z,98456.44
2023-03-04T00:50:57.211Z,98459.63
2023-03-04T00:53:24.123Z,98471.84
2023-03-04T00:55:50.850Z,98458.22
2023-03-04T00:58:17.545Z,98467.25
2023-03-04T01:00:44.143Z,98467.81
2023-03-04T01:03:10.588Z,98455.59
2023-03-04T01:05:37.172Z,98449.16
2023-03-04T01:08:05.275Z,98450.69
2023-03-04T01:10:33.176Z,98442.41
2023-03-04T01:12:59.676Z,98454.38
2023-03-04T01:15:26.154Z,98439.69
2023-03-04T01:17:52.657Z,98450.56
2023-03-04T01:20:19.243Z,98446.13
2023-03-04T01:22:45.752Z,98436.78
2023-03-04T01:25:12.310Z,98431.38
2023-03-04T01:27:38.809Z,98438.25
2023-03-04T01:30:06.046Z,98435.06
2023-03-04T01:32:32.563Z,98448.31
2023-03-04T01:34:59.082Z,98458.38
2023-03-04T01:37:26.741Z,98463.69
2023-03-04T01:39:53.188Z,98445.56
2023-03-04T01:42:21.029Z,98444.06
2023-03-04T01:44:48.160Z,98446.66
2023-03-04T01:47:14.805Z,98439.16
2023-03-04T01:49:41.425Z,98455.88
2023-03-04T01:52:13.634Z,98456.66
2023-03-04T01:54:40.848Z,98461.38
2023-03-04T01:57:19.010Z,98452.84
2023-03-04T01:59:46.078Z,98449.63
2023-03-04T02:02:13.060Z,98460.78
2023-03-04T02:04:41.032Z,98463.91
2023-03-04T02:07:08.134Z,98451.13
2023-03-04T02:09:35.826Z,98470.25
2023-03-04T02:12:02.336Z,98475.06
2023-03-04T02:14:29.802Z,98462.38
2023-03-04T02:16:56.359Z,98475.81
2023-03-04T02:19:40.683Z,98470.16
2023-03-04T02:22:08.430Z,98469.53
2023-03-04T02:24:34.908Z,98473.25
2023-03-04T02:27:02.549Z,98468.94
2023-03-04T02:29:29.724Z,98478.78
2023-03-04T02:31:56.312Z,98472.66
2023-03-04T02:34:28.715Z,98482.72
2023-03-04T02:36:56.032Z,98461.72
2023-03-04T02:39:33.170Z,98487.94
2023-03-04T02:42:00.015Z,98480.78
2023-03-04T02:44:27.999Z,98463.41
2023-03-04T02:46:56.141Z,98470.03
2023-03-04T02:49:23.580Z,98469.72
2023-03-04T02:51:55.220Z,98466.84
2023-03-04T02:54:24.871Z,98470.28
2023-03-04T02:56:55.394Z,98464.03
2023-03-04T02:59:22.521Z,98463.63
2023-03-04T03:01:49.139Z,98474.44
2023-03-04T03:04:16.282Z,98478.06
2023-03-04T03:06:42.741Z,98475.13
2023-03-04T03:09:09.610Z,98480.13
2023-03-04T03:11:37.705Z,98481.91
2023-03-04T03:14:05.692Z,98485.94
2023-03-04T03:16:33.508Z,98477.41
2023-03-04T03:19:01.265Z,98484.81
2023-03-04T03:21:27.724Z,98471.53
2023-03-04T03:23:54.199Z,98477.28
2023-03-04T03:26:20.808Z,98483.56
2023-03-04T03:28:47.281Z,98484.63
2023-03-04T03:31:14.513Z,98477.16
2023-03-04T03:33:40.980Z,98478.19
2023-03-04T03:36:08.285Z,98487.69
2023-03-04T03:38:34.779Z,98500.50
2023-03-04T03:41:01.264Z,98492.16
2023-03-04T03:43:27.697Z,98483.34
2023-03-04T03:45:54.189Z,98496.78
2023-03-04T03:48:20.688Z,98489.88
2023-03-04T03:50:47.203Z,98498.88
2023-03-04T03:53:13.687Z,98488.25
2023-03-04T03:55:40.364Z,98492.75
2023-03-04T03:58:08.198Z,98493.44
2023-03-04T04:00:34.637Z,98495.53
2023-03-04T04:03:01.373Z,98489.09
2023-03-04T04:05:27.934Z,98478.97
2023-03-04T04:07:55.007Z,98497.53
2023-03-04T04:10:21.700Z,98506.00
2023-03-04T04:12:48.197Z,98495.88
2023-03-04T04:15:14.822Z,98506.50
2023-03-04T04:17:41.309Z,98497.47
2023-03-04T04:20:08.465Z,98505.50
2023-03-04T04:22:34.910Z,98521.44
2023-03-04T04:25:02.757Z,98509.69
2023-03-04T04:27:29.924Z,98507.56
2023-03-04T04:29:56.402Z,98502.72
2023-03-04T04:32:22.969Z,98494.56
2023-03-04T04:34:49.499Z,98507.00
2023-03-04T04:37:15.963Z,98510.69
2023-03-04T04:39:42.411Z,98509.88
2023-03-04T04:42:11.415Z,98506.50
2023-03-04T04:44:39.070Z,98513.91
2023-03-04T04:47:09.330Z,98519.78
2023-03-04T04:49:35.914Z,98520.31
2023-03-04T04:52:02.469Z,98524.78
2023-03-04T04:54:28.972Z,98531.38
2023-03-04T04:56:55.492Z,98545.13
2023-03-04T04:59:22.089Z,98540.03
2023-03-04T05:01:48.568Z,98536.09
2023-03-04T05:04:16.213Z,98530.22
2023-03-04T05:06:42.705Z,98531.28
2023-03-04T05:09:10.992Z,98532.25
2023-03-04T05:11:37.463Z,98528.72
2023-03-04T05:14:04.004Z,98536.75
2023-03-04T05:16:30.604Z,98533.84
2023-03-04T05:18:57.042Z,98535.88
2023-03-04T05:21:24.810Z,98543.38
2023-03-04T05:23:52.235Z,98527.13
2023-03-04T05:26:20.656Z,98527.13
2023-03-04T05:28:47.645Z,98533.22
2023-03-04T05:31:14.622Z,98539.00
2023-03-04T05:33:41.167Z,98532.09
2023-03-04T05:36:08.006Z,98542.22
2023-03-04T05:38:34.468Z,98542.22
2023-03-04T05:41:03.073Z,98553.31
2023-03-04T05:43:30.757Z,98551.25
2023-03-04T05:45:57.220Z,98558.06
2023-03-04T05:48:23.956Z,98559.25
2023-03-04T05:50:55.292Z,98566.75
2023-03-04T05:53:21.807Z,98561.19
2023-03-04T05:55:48.522Z,98575.16
2023-03-04T05:58:15.498Z,98573.88
2023-03-04T06:00:42.020Z,98568.69
2023-03-04T06:03:13.791Z,98580.34
2023-03-04T06:05:40.264Z,98563.94
2023-03-04T06:08:06.707Z,98571.81
2023-03-04T06:10:33.761Z,98582.41
2023-03-04T06:13:00.202Z,98584.84
2023-03-04T06:15:27.980Z,98580.66
2023-03-04T06:17:54.436Z,98584.84
2023-03-04T06:20:21.040Z,98591.75
2023-03-04T06:22:47.469Z,98595.13
2023-03-04T06:25:13.997Z,98589.81
2023-03-04T06:27:40.734Z,98589.81
2023-03-04T06:30:07.701Z,98590.28
2023-03-04T06:32:34.204Z,98592.47
2023-03-04T06:35:00.755Z,98601.47
2023-03-04T06:37:27.230Z,98588.19
2023-03-04T06:39:53.805Z,98598.50
2023-03-04T06:42:21.616Z,98598.53
2023-03-04T06:44:48.690Z,98588.56
2023-03-04T06:47:16.028Z,98592.91
2023-03-04T06:49:43.912Z,98597.06
2023-03-04T06:52:12.878Z,98599.47
2023-03-04T06:54:41.271Z,98586.78
2023-03-04T06:57:07.793Z,98603.53
2023-03-04T06:59:34.555Z,98600.31
2023-03-04T07:02:01.332Z,98600.44
2023-03-04T07:04:27.967Z,98607.22
2023-03-04T07:06:54.542Z,98607.47
2023-03-04T07:09:22.399Z,98596.44
2023-03-04T07:11:50.136Z,98589.84
2023-03-04T07:14:16.624Z,98601.91
2023-03-04T07:16:43.225Z,98607.88
2023-03-04T07:19:11.033Z,98622.34
2023-03-04T07:21:37.976Z,98619.53
2023-03-04T07:24:04.525Z,98622.59
2023-03-04T07:26:31.104Z,98611.19
2023-03-04T07:28:59.958Z,98610.00
2023-03-04T07:31:31.581Z,98615.38
2023-03-04T07:33:59.555Z,98613.28
2023-03-04T07:36:26.451Z,98612.81
2023-03-04T07:38:54.826Z,98614.22
2023-03-04T07:41:22.139Z,98608.72
2023-03-04T07:43:48.666Z,98606.13
2023-03-04T07:46:16.398Z,98604.00
2023-03-04T07:48:42.859Z,98600.94
2023-03-04T07:51:16.884Z,98603.41
2023-03-04T07:53:45.542Z,98604.78
2023-03-04T07:56:13.545Z,98615.75
2023-03-04T07:58:40.833Z,98611.81
2023-03-04T08:01:11.476Z,98607.09
2023-03-04T08:03:37.966Z,98616.75
2023-03-04T08:06:05.811Z,98618.16
2023-03-04T08:08:32.315Z,98611.53
2023-03-04T08:10:58.814Z,98622.78
2023-03-04T08:13:25.956Z,98610.56
2023-03-04T08:15:52.505Z,98625.50
2023-03-04T08:18:19.179Z,98613.34
2023-03-04T08:20:45.620Z,98621.13
2023-03-04T08:23:13.331Z,98603.09
2023-03-04T08:25:40.781Z,98609.28
2023-03-04T08:28:09.091Z,98610.34
2023-03-04T08:30:36.354Z,98611.97
2023-03-04T08:33:03.462Z,98613.63
2023-03-04T08:35:30.108Z,98605.38
2023-03-04T08:37:56.617Z,98613.13
2023-03-04T08:40:24.792Z,98614.72
2023-03-04T08:42:51.302Z,98606.47
2023-03-04T08:45:17.747Z,98612.91
2023-03-04T08:47:44.208Z,98596.19
2023-03-04T08:50:11.053Z,98604.75
2023-03-04T08:52:37.588Z,98591.97
2023-03-04T08:55:04.269Z,98596.28
2023-03-04T08:57:30.732Z,98608.06
2023-03-04T08:59:58.351Z,98598.16
2023-03-04T09:02:24.837Z,98607.56
2023-03-04T09:04:51.355Z,98596.94
2023-03-04T09:07:17.886Z,98616.16
2023-03-04T09:09:44.333Z,98615.09
2023-03-04T09:12:10.866Z,98595.41
2023-03-04T09:14:37.378Z,98602.38
2023-03-04T09:17:04.530Z,98603.47
2023-03-04T09:19:31.393Z,98594.69
2023-03-04T09:22:00.532Z,98591.53
2023-03-04T09:24:28.251Z,98616.91
2023-03-04T09:26:57.441Z,98596.38
2023-03-04T09:29:24.117Z,98607.25
2023-03-04T09:31:50.636Z,98592.56
2023-03-04T09:34:17.088Z,98590.97
2023-03-04T09:36:43.612Z,98602.00
2023-03-04T09:39:10.108Z,98591.88
2023-03-04T09:41:58.598Z,98593.53
2023-03-04T09:44:29.558Z,98609.56
2023-03-04T09:46:58.414Z,98594.63
2023-03-04T09:49:26.589Z,98591.72
2023-03-04T09:51:57.443Z,98597.28
2023-03-04T09:54:43.697Z,98607.97
2023-03-04T09:57:28.998Z,98600.28
2023-03-04T10:00:20.864Z,98603.53
2023-03-04T10:02:53.214Z,98603.81
2023-03-04T10:05:21.197Z,98601.16
2023-03-04T10:07:56.133Z,98602.75
2023-03-04T10:10:26.613Z,98588.09
2023-03-04T10:12:55.011Z,98591.03
2023-03-04T10:15:33.023Z,98590.50
2023-03-04T10:18:08.208Z,98584.88
2023-03-04T10:20:44.411Z,98585.16
2023-03-04T10:23:16.297Z,98581.94
2023-03-04T10:25:47.065Z,98579.78
2023-03-04T10:28:20.053Z,98568.00
2023-03-04T10:30:59.846Z,98583.78
2023-03-04T10:33:30.553Z,98566.94
2023-03-04T10:36:15.437Z,98578.16
2023-03-04T10:38:42.512Z,98572.28
2023-03-04T10:41:28.414Z,98573.13
2023-03-04T10:44:02.569Z,98573.38
2023-03-04T10:46:30.999Z,98581.91
2023-03-04T10:48:57.934Z,98574.38
2023-03-04T10:51:26.308Z,98575.47
2023-03-04T10:53:58.402Z,98571.22
2023-03-04T10:56:39.103Z,98581.63
2023-03-04T10:59:32.352Z,98579.22
2023-03-04T11:02:00.621Z,98581.13
2023-03-04T11:04:28.160Z,98592.09
2023-03-04T11:06:54.787Z,98573.84
2023-03-04T11:09:23.040Z,98573.31
2023-03-04T11:11:51.102Z,98576.56
2023-03-04T11:14:28.680Z,98569.63
2023-03-04T11:16:59.873Z,98568.53
2023-03-04T11:19:30.688Z,98559.94
2023-03-04T11:21:59.078Z,98545.50
2023-03-04T11:24:29.563Z,98546.28
2023-03-04T11:27:15.652Z,98543.28
2023-03-04T11:29:47.788Z,98534.09
2023-03-04T11:32:20.435Z,98522.59
2023-03-04T11:34:48.326Z,98518.00
2023-03-04T11:37:14.767Z,98514.69
2023-03-04T11:40:00.000Z,98520.06
2023-03-04T11:42:41.808Z,98505.84
2023-03-04T11:45:27.512Z,98501.47
2023-03-04T11:47:57.767Z,98498.75
2023-03-04T11:51:02.714Z,98501.19
2023-03-04T11:53:36.875Z,98483.50
2023-03-04T11:56:16.900Z,98484.41
2023-03-04T11:58:43.360Z,98485.28
2023-03-04T12:01:15.010Z,98490.44
2023-03-04T12:03:41.508Z,98498.16
2023-03-04T12:06:26.729Z,98490.84
2023-03-04T12:08:53.174Z,98481.28
2023-03-04T12:11:20.999Z,98487.22
2023-03-04T12:14:02.568Z,98490.84
2023-03-04T12:16:35.180Z,98489.25
2023-03-04T12:19:40.238Z,98475.38
2023-03-04T12:22:06.750Z,98475.19
2023-03-04T12:24:49.098Z,98482.13
2023-03-04T12:27:17.181Z,98484.31
2023-03-04T12:29:58.656Z,98498.34
2023-03-04T12:32:38.512Z,98491.84
2023-03-04T12:35:35.653Z,98488.28
2023-03-04T12:38:20.530Z,98485.19
2023-03-04T12:40:49.821Z,98478.28
2023-03-04T12:43:22.532Z,98486.78
2023-03-04T12:46:09.296Z,98496.59
2023-03-04T12:48:38.682Z,98491.22
2023-03-04T12:51:25.350Z,98479.25
2023-03-04T12:54:00.426Z,98486.72
2023-03-04T12:56:29.738Z,98469.59
2023-03-04T12:58:58.158Z,98483.44
2023-03-04T13:01:28.541Z,98474.81
2023-03-04T13:04:13.948Z,98479.19
2023-03-04T13:06:49.233Z,98470.25
2023-03-04T13:09:19.931Z,98470.94
2023-03-04T13:11:49.494Z,98467.28
2023-03-04T13:14:17.731Z,98455.63
2023-03-04T13:16:45.173Z,98461.94
2023-03-04T13:19:30.582Z,98460.31
2023-03-04T13:21:57.075Z,98468.53
2023-03-04T13:24:42.366Z,98466.38
2023-03-04T13:27:28.565Z,98475.44
2023-03-04T13:29:55.039Z,98479.81
2023-03-04T13:32:38.636Z,98476.66
2023-03-04T13:35:26.229Z,98475.91
2023-03-04T13:38:04.630Z,98476.00
2023-03-04T13:40:36.717Z,98479.81
2023-03-04T13:43:24.063Z,98477.59
2023-03-04T13:45:51.784Z,98484.63
2023-03-04T13:48:26.453Z,98479.91
2023-03-04T13:50:53.321Z,98480.44
2023-03-04T13:53:30.942Z,98475.84
2023-03-04T13:56:20.579Z,98496.78
2023-03-04T13:58:49.869Z,98503.28
2023-03-04T14:01:24.484Z,98498.66
2023-03-04T14:03:50.935Z,98492.84
2023-03-04T14:06:19.789Z,98506.78
2023-03-04T14:08:46.615Z,98523.16
2023-03-04T14:11:14.573Z,98507.84
2023-03-04T14:13:42.859Z,98501.97
2023-03-04T14:16:09.385Z,98512.16
2023-03-04T14:18:38.277Z,98510.03
2023-03-04T14:21:05.665Z,98509.19
2023-03-04T14:23:35.208Z,98502.25
2023-03-04T14:26:27.654Z,98499.56
2023-03-04T14:28:57.981Z,98498.28
2023-03-04T14:31:25.358Z,98498.84
2023-03-04T14:33:54.372Z,98494.53
2023-03-04T14:36:23.403Z,98495.88
2023-03-04T14:39:00.245Z,98491.22
2023-03-04T14:41:29.128Z,98484.56
2023-03-04T14:43:56.811Z,98476.84
2023-03-04T14:46:25.155Z,98485.63
2023-03-04T14:48:52.534Z,98471.41
2023-03-04T14:51:51.598Z,98475.75
2023-03-04T14:54:26.421Z,98472.00
2023-03-04T14:56:52.866Z,98452.69
2023-03-04T14:59:28.989Z,98468.81
2023-03-04T15:02:08.406Z,98458.97
2023-03-04T15:04:38.650Z,98468.63
2023-03-04T15:07:05.167Z,98456.00
2023-03-04T15:09:31.721Z,98448.16
2023-03-04T15:12:03.796Z,98451.13
2023-03-04T15:14:53.826Z,98451.13
2023-03-04T15:17:39.943Z,98453.06
2023-03-04T15:20:06.408Z,98451.59
2023-03-04T15:22:48.925Z,98441.19
2023-03-04T15:25:18.941Z,98448.19
2023-03-04T15:27:47.137Z,98440.38
2023-03-04T15:30:20.412Z,98445.06
2023-03-04T15:32:47.025Z,98444.59
2023-03-04T15:35:15.384Z,98449.25
2023-03-04T15:37:43.345Z,98439.34
2023-03-04T15:40:15.004Z,98438.69
2023-03-04T15:42:41.512Z,98443.63
2023-03-04T15:45:20.068Z,98437.25
2023-03-04T15:47:46.642Z,98446.72
2023-03-04T15:50:13.201Z,98442.09
2023-03-04T15:52:40.031Z,98432.81
2023-03-04T15:55:07.503Z,98438.56
2023-03-04T15:57:34.091Z,98442.88
2023-03-04T16:00:00.651Z,98443.09
2023-03-04T16:02:27.649Z,98437.56
2023-03-04T16:04:55.542Z,98427.72
2023-03-04T16:07:24.153Z,98434.66
2023-03-04T16:09:55.054Z,98438.13
2023-03-04T16:12:22.766Z,98432.84
2023-03-04T16:14:51.306Z,98430.16
2023-03-04T16:17:17.752Z,98431.81
2023-03-04T16:19:44.595Z,98449.13
2023-03-04T16:22:15.875Z,98425.88
2023-03-04T16:24:42.572Z,98422.44
2023-03-04T16:27:14.426Z,98431.50
2023-03-04T16:29:43.003Z,98429.38
2023-03-04T16:32:09.511Z,98421.63
2023-03-04T16:34:37.390Z,98430.75
2023-03-04T16:37:06.826Z,98425.13
2023-03-04T16:39:33.587Z,98419.50
2023-03-04T16:42:00.096Z,98427.00
2023-03-04T16:44:26.588Z,98423.00
2023-03-04T16:46:53.092Z,98413.13
2023-03-04T16:49:19.549Z,98415.78
2023-03-04T16:51:48.460Z,98412.56
2023-03-04T16:54:17.174Z,98417.91
2023-03-04T16:56:45.039Z,98408.81
2023-03-04T16:59:17.272Z,98406.72
2023-03-04T17:01:44.102Z,98413.13
2023-03-04T17:04:10.654Z,98424.06
2023-03-04T17:06:40.238Z,98414.72
2023-03-04T17:09:07.650Z,98410.47
2023-03-04T17:11:34.381Z,98419.53
2023-03-04T17:14:02.213Z,98412.59
2023-03-04T17:16:28.916Z,98411.53
2023-03-04T17:18:55.446Z,98404.31
2023-03-04T17:21:26.425Z,98406.72
2023-03-04T17:23:53.838Z,98412.34
2023-03-04T17:26:23.940Z,98407.78
2023-03-04T17:28:51.719Z,98408.31
2023-03-04T17:31:20.022Z,98402.97
2023-03-04T17:33:47.090Z,98405.63
2023-03-04T17:36:14.561Z,98400.56
2023-03-04T17:38:41.286Z,98392.56
2023-03-04T17:41:11.287Z,98392.03
2023-03-04T17:43:39.113Z,98392.84
2023-03-04T17:46:06.888Z,98389.88
2023-03-04T17:48:33.864Z,98388.28
2023-03-04T17:51:00.689Z,98379.75
2023-03-04T17:53:27.274Z,98380.81
2023-03-04T17:55:55.417Z,98394.41
2023-03-04T17:58:22.541Z,98382.16
2023-03-04T18:00:50.949Z,98380.00
2023-03-04T18:03:17.725Z,98386.41
2023-03-04T18:05:44.187Z,98385.63
2023-03-04T18:08:10.625Z,98369.59
2023-03-04T18:10:37.148Z,98373.34
2023-03-04T18:13:03.840Z,98371.47
2023-03-04T18:15:31.717Z,98366.63
2023-03-04T18:17:58.162Z,98375.69
2023-03-04T18:20:24.696Z,98356.53
2023-03-04T18:22:51.245Z,98367.16
2023-03-04T18:25:17.872Z,98357.03
2023-03-04T18:27:45.198Z,98345.28
2023-03-04T18:30:13.564Z,98352.22
2023-03-04T18:32:51.407Z,98343.72
2023-03-04T18:35:19.583Z,98350.06
2023-03-04T18:37:46.181Z,98348.22
2023-03-04T18:40:12.971Z,98339.13
2023-03-04T18:42:40.043Z,98341.00
2023-03-04T18:45:06.897Z,98336.22
2023-03-04T18:47:33.715Z,98328.75
2023-03-04T18:50:00.190Z,98335.66
2023-03-04T18:52:26.744Z,98332.47
2023-03-04T18:54:53.177Z,98325.53
2023-03-04T18:57:19.779Z,98311.94
2023-03-04T18:59:58.643Z,98309.81
2023-03-04T19:02:25.088Z,98313.28
2023-03-04T19:04:52.897Z,98310.06
2023-03-04T19:07:19.336Z,98313.78
2023-03-04T19:09:45.823Z,98310.06
2023-03-04T19:12:12.342Z,98300.72
2023-03-04T19:14:40.370Z,98304.97
2023-03-04T19:17:06.876Z,98296.75
2023-03-04T19:19:33.615Z,98299.41
2023-03-04T19:22:00.122Z,98299.16
2023-03-04T19:24:26.588Z,98298.84
2023-03-04T19:26:53.058Z,98299.91
2023-03-04T19:29:20.296Z,98296.72
2023-03-04T19:31:46.761Z,98292.97
2023-03-04T19:34:13.351Z,98301.56
2023-03-04T19:36:41.022Z,98308.47
2023-03-04T19:39:09.114Z,98297.25
2023-03-04T19:41:37.853Z,98298.03
2023-03-04T19:44:04.508Z,98300.38
2023-03-04T19:46:32.272Z,98301.47
2023-03-04T19:48:58.838Z,98307.38
2023-03-04T19:51:26.308Z,98297.75
2023-03-04T19:53:55.657Z,98302.28
2023-03-04T19:56:22.720Z,98293.47
2023-03-04T19:58:49.841Z,98299.81
2023-03-04T20:01:27.932Z,98312.09
2023-03-04T20:03:59.397Z,98303.34
2023-03-04T20:06:27.125Z,98292.91
2023-03-04T20:08:57.177Z,98293.97
2023-03-04T20:11:25.179Z,98296.66
2023-03-04T20:13:51.686Z,98297.13
2023-03-04T20:16:18.330Z,98296.88
2023-03-04T20:18:44.823Z,98291.81
2023-03-04T20:21:11.748Z,98286.50
2023-03-04T20:23:38.216Z,98287.53
2023-03-04T20:26:06.295Z,98283.84
2023-03-04T20:28:33.330Z,98287.03
2023-03-04T20:31:18.226Z,98273.16
2023-03-04T20:33:45.081Z,98279.56
2023-03-04T20:36:11.511Z,98274.47
2023-03-04T20:38:39.219Z,98279.78
2023-03-04T20:41:05.917Z,98274.22
2023-03-04T20:43:32.582Z,98277.47
2023-03-04T20:46:17.654Z,98279.00
2023-03-04T20:48:44.292Z,98273.44
2023-03-04T20:51:10.739Z,98271.28
2023-03-04T20:53:38.478Z,98276.34
2023-03-04T20:56:04.968Z,98287.53
2023-03-04T20:58:31.406Z,98280.38
2023-03-04T21:00:59.303Z,98275.31
2023-03-04T21:03:25.744Z,98280.59
2023-03-04T21:05:52.236Z,98288.31
2023-03-04T21:08:18.669Z,98278.75
2023-03-04T21:10:45.133Z,98281.91
2023-03-04T21:13:16.582Z,98278.47
2023-03-04T21:15:46.913Z,98282.25
2023-03-04T21:18:13.471Z,98275.00
2023-03-04T21:20:40.700Z,98286.41
2023-03-04T21:23:07.198Z,98275.75
2023-03-04T21:25:33.637Z,98277.88
2023-03-04T21:28:00.108Z,98270.69
2023-03-04T21:30:26.569Z,98273.66
2023-03-04T21:32:54.170Z,98272.09
2023-03-04T21:35:20.963Z,98276.31
2023-03-04T21:37:47.535Z,98275.81
2023-03-04T21:40:14.024Z,98283.22
2023-03-04T21:42:40.773Z,98275.25
2023-03-04T21:45:07.470Z,98273.91
2023-03-04T21:47:34.368Z,98271.75
2023-03-04T21:50:00.922Z,98263.50
2023-03-04T21:52:27.419Z,98268.38
2023-03-04T21:54:55.912Z,98266.75
2023-03-04T21:57:22.367Z,98273.66
2023-03-04T21:59:49.961Z,98266.69
2023-03-04T22:02:17.552Z,98264.25
2023-03-04T22:04:44.156Z,98266.41
2023-03-04T22:07:10.758Z,98259.72
2023-03-04T22:09:37.399Z,98260.50
2023-03-04T22:12:04.197Z,98257.84
2023-03-04T22:14:32.058Z,98257.31
2023-03-04T22:16:58.826Z,98250.72
2023-03-04T22:19:26.509Z,98251.84
2023-03-04T22:21:53.434Z,98256.03
2023-03-04T22:24:20.387Z,98253.38
2023-03-04T22:26:46.926Z,98253.03
2023-03-04T22:29:13.880Z,98255.78
2023-03-04T22:31:42.327Z,98260.31
2023-03-04T22:34:10.448Z,98257.13
2023-03-04T22:36:40.463Z,98257.38
2023-03-04T22:39:08.497Z,98264.34
2023-03-04T22:41:36.584Z,98250.22
2023-03-04T22:44:04.579Z,98258.69
2023-03-04T22:46:32.976Z,98258.41
2023-03-04T22:49:00.788Z,98258.19
2023-03-04T22:51:28.088Z,98252.06
2023-03-04T22:53:55.689Z,98255.50
2023-03-04T22:56:22.164Z,98256.06
2023-03-04T22:58:48.905Z,98264.09
2023-03-04T23:01:16.282Z,98259.22
2023-03-04T23:03:43.886Z,98252.84
2023-03-04T23:06:25.245Z,98252.84
2023-03-04T23:08:51.987Z,98250.78
2023-03-04T23:11:24.233Z,98250.16
2023-03-04T23:13:51.034Z,98256.00
2023-03-04T23:16:18.085Z,98251.00
2023-03-04T23:18:46.671Z,98245.44
2023-03-04T23:21:14.724Z,98245.91
2023-03-04T23:23:41.559Z,98240.06
2023-03-04T23:26:19.364Z,98242.75
2023-03-04T23:28:46.629Z,98241.72
2023-03-04T23:31:16.093Z,98240.06
2023-03-04T23:33:44.717Z,98232.09
2023-03-04T23:36:15.533Z,98229.97
2023-03-04T23:38:45.495Z,98236.88
2023-03-04T23:41:14.537Z,98236.34
2023-03-04T23:43:40.989Z,98233.75
2023-03-04T23:46:09.412Z,98234.19
2023-03-04T23:48:35.917Z,98235.75
2023-03-04T23:51:02.430Z,98240.59
2023-03-04T23:53:29.469Z,98239.53
2023-03-04T23:55:56.052Z,98233.66
2023-03-04T23:58:22.694Z,98234.13
